createdAt,value
2018-11-13T00:00:22.572Z,14.30
2018-11-13T00:02:50.647Z,14.30
2018-11-13T00:05:18.016Z,14.20
2018-11-13T00:07:45.244Z,14.20
2018-11-13T00:10:12.915Z,14.30
2018-11-13T00:12:40.769Z,14.30
2018-11-13T00:15:08.075Z,14.30
2018-11-13T00:17:35.653Z,14.20
2018-11-13T00:20:02.985Z,14.20
2018-11-13T00:22:30.264Z,14.20
2018-11-13T00:24:57.553Z,14.20
2018-11-13T00:27:24.875Z,14.30
2018-11-13T00:29:52.204Z,14.20
2018-11-13T00:32:19.498Z,14.20
2018-11-13T00:34:46.732Z,14.30
2018-11-13T00:37:14.036Z,14.30
2018-11-13T00:39:41.323Z,14.30
2018-11-13T00:42:08.639Z,14.20
2018-11-13T00:44:35.898Z,14.20
2018-11-13T00:47:03.246Z,14.20
2018-11-13T00:49:30.510Z,14.20
2018-11-13T00:51:57.813Z,14.20
2018-11-13T00:54:25.377Z,14.20
2018-11-13T00:56:53.485Z,14.20
2018-11-13T00:59:20.814Z,14.30
2018-11-13T01:01:49.516Z,14.30
2018-11-13T01:04:16.736Z,14.30
2018-11-13T01:06:43.982Z,14.30
2018-11-13T01:09:11.342Z,14.30
2018-11-13T01:11:38.902Z,14.30
2018-11-13T01:14:06.473Z,14.30
2018-11-13T01:16:34.024Z,14.20
2018-11-13T01:19:01.347Z,14.20
2018-11-13T01:21:28.685Z,14.20
2018-11-13T01:23:56.012Z,14.30
2018-11-13T01:26:23.375Z,14.20
2018-11-13T01:28:50.612Z,14.20
2018-11-13T01:31:17.848Z,14.20
2018-11-13T01:33:45.189Z,14.30
2018-11-13T01:36:12.476Z,14.30
2018-11-13T01:38:39.756Z,14.30
2018-11-13T01:41:07.051Z,14.20
2018-11-13T01:43:34.351Z,14.20
2018-11-13T01:46:01.644Z,14.20
2018-11-13T01:48:28.937Z,14.40
2018-11-13T01:50:56.219Z,14.30
2018-11-13T01:53:23.467Z,14.30
2018-11-13T01:55:50.820Z,14.30
2018-11-13T01:58:18.044Z,14.30
2018-11-13T02:00:45.327Z,14.30
2018-11-13T02:03:12.639Z,14.30
2018-11-13T02:05:39.891Z,14.30
2018-11-13T02:08:07.236Z,14.30
2018-11-13T02:10:34.468Z,14.30
2018-11-13T02:13:01.699Z,14.30
2018-11-13T02:15:29.088Z,14.30
2018-11-13T02:17:56.340Z,14.30
2018-11-13T02:20:23.574Z,14.30
2018-11-13T02:22:51.025Z,14.30
2018-11-13T02:25:19.241Z,14.30
2018-11-13T02:27:46.792Z,14.30
2018-11-13T02:30:15.685Z,14.30
2018-11-13T02:32:43.550Z,14.30
2018-11-13T02:35:11.576Z,14.30
2018-11-13T02:37:38.789Z,14.30
2018-11-13T02:40:06.160Z,14.20
2018-11-13T02:42:34.425Z,14.20
2018-11-13T02:45:01.769Z,14.20
2018-11-13T02:47:29.357Z,14.20
2018-11-13T02:49:56.652Z,14.30
2018-11-13T02:52:24.056Z,14.30
2018-11-13T02:54:51.946Z,14.20
2018-11-13T02:57:19.181Z,14.20
2018-11-13T02:59:46.412Z,14.30
2018-11-13T03:02:13.866Z,14.20
2018-11-13T03:04:41.131Z,14.20
2018-11-13T03:07:08.440Z,14.20
2018-11-13T03:09:35.704Z,14.20
2018-11-13T03:12:03.166Z,14.20
2018-11-13T03:14:30.489Z,14.20
2018-11-13T03:16:57.783Z,14.20
2018-11-13T03:19:25.063Z,14.20
2018-11-13T03:21:52.337Z,14.30
2018-11-13T03:24:19.587Z,14.20
2018-11-13T03:26:46.906Z,14.10
2018-11-13T03:29:14.182Z,14.10
2018-11-13T03:31:41.490Z,14.20
2018-11-13T03:34:08.769Z,14.20
2018-11-13T03:36:36.080Z,14.20
2018-11-13T03:39:05.129Z,14.10
2018-11-13T03:41:32.413Z,14.20
2018-11-13T03:43:59.753Z,14.10
2018-11-13T03:46:27.017Z,14.10
2018-11-13T03:48:54.314Z,14.10
2018-11-13T03:51:21.610Z,14.10
2018-11-13T03:53:48.802Z,14.10
2018-11-13T03:56:16.060Z,14.00
2018-11-13T03:58:43.321Z,14.10
2018-11-13T04:01:10.637Z,14.10
2018-11-13T04:03:37.917Z,14.10
2018-11-13T04:06:05.242Z,14.10
2018-11-13T04:08:32.504Z,14.10
2018-11-13T04:10:59.813Z,14.00
2018-11-13T04:13:27.186Z,14.00
2018-11-13T04:15:54.478Z,14.00
2018-11-13T04:18:21.767Z,14.00
2018-11-13T04:20:49.082Z,14.00
2018-11-13T04:23:16.361Z,14.00
2018-11-13T04:25:43.717Z,14.00
2018-11-13T04:28:10.982Z,14.00
2018-11-13T04:30:38.422Z,14.10
2018-11-13T04:33:05.585Z,14.00
2018-11-13T04:35:32.880Z,14.00
2018-11-13T04:38:00.154Z,14.00
2018-11-13T04:40:27.475Z,14.00
2018-11-13T04:42:54.748Z,14.00
2018-11-13T04:45:23.343Z,14.00
2018-11-13T04:47:50.748Z,14.00
2018-11-13T04:50:19.027Z,14.00
2018-11-13T04:52:46.336Z,14.00
2018-11-13T04:55:14.014Z,13.90
2018-11-13T04:57:42.313Z,14.00
2018-11-13T05:00:11.619Z,13.90
2018-11-13T05:02:39.574Z,13.90
2018-11-13T05:05:07.681Z,13.90
2018-11-13T05:07:34.921Z,13.90
2018-11-13T05:10:02.249Z,14.00
2018-11-13T05:12:29.519Z,13.90
2018-11-13T05:14:56.780Z,13.90
2018-11-13T05:17:24.046Z,14.10
2018-11-13T05:19:51.369Z,13.90
2018-11-13T05:22:18.659Z,13.90
2018-11-13T05:24:45.999Z,13.90
2018-11-13T05:27:13.297Z,13.90
2018-11-13T05:29:40.496Z,13.90
2018-11-13T05:32:07.862Z,13.90
2018-11-13T05:34:35.137Z,14.00
2018-11-13T05:37:02.392Z,13.90
2018-11-13T05:39:29.624Z,13.90
2018-11-13T05:41:56.898Z,13.80
2018-11-13T05:44:24.126Z,13.80
2018-11-13T05:46:51.428Z,13.80
2018-11-13T05:49:18.790Z,13.80
2018-11-13T05:51:46.060Z,13.80
2018-11-13T05:54:13.395Z,13.80
2018-11-13T05:56:40.659Z,13.80
2018-11-13T05:59:07.885Z,13.90
2018-11-13T06:01:35.117Z,13.80
2018-11-13T06:04:02.406Z,13.80
2018-11-13T06:06:29.641Z,13.80
2018-11-13T06:08:56.966Z,13.80
2018-11-13T06:11:24.305Z,13.80
2018-11-13T06:13:51.627Z,13.80
2018-11-13T06:16:18.904Z,13.80
2018-11-13T06:18:46.145Z,13.70
2018-11-13T06:21:13.369Z,13.80
2018-11-13T06:23:40.629Z,13.70
2018-11-13T06:26:07.977Z,13.70
2018-11-13T06:28:35.254Z,13.80
2018-11-13T06:31:02.562Z,13.80
2018-11-13T06:33:30.488Z,13.80
2018-11-13T06:35:57.777Z,13.80
2018-11-13T06:38:25.057Z,13.80
2018-11-13T06:40:52.973Z,13.80
2018-11-13T06:43:20.261Z,13.80
2018-11-13T06:45:47.495Z,13.80
2018-11-13T06:48:14.695Z,13.80
2018-11-13T06:50:42.001Z,13.70
2018-11-13T06:53:09.190Z,13.80
2018-11-13T06:55:38.332Z,13.80
2018-11-13T06:58:06.885Z,13.80
2018-11-13T07:00:34.247Z,13.80
2018-11-13T07:03:01.572Z,13.70
2018-11-13T07:05:28.857Z,13.80
2018-11-13T07:07:56.121Z,13.80
2018-11-13T07:10:24.602Z,13.80
2018-11-13T07:12:52.645Z,13.80
2018-11-13T07:15:21.136Z,13.80
2018-11-13T07:17:49.525Z,13.80
2018-11-13T07:20:17.892Z,13.80
2018-11-13T07:22:45.143Z,13.80
2018-11-13T07:25:12.763Z,13.80
2018-11-13T07:27:40.686Z,13.70
2018-11-13T07:30:09.440Z,13.70
2018-11-13T07:32:37.004Z,13.70
2018-11-13T07:35:05.289Z,13.70
2018-11-13T07:37:32.585Z,13.70
2018-11-13T07:39:59.857Z,13.70
2018-11-13T07:42:27.697Z,13.70
2018-11-13T07:44:54.888Z,13.70
2018-11-13T07:47:22.225Z,13.80
2018-11-13T07:49:49.430Z,13.80
2018-11-13T07:52:16.740Z,13.80
2018-11-13T07:54:43.993Z,13.80
2018-11-13T07:57:11.256Z,13.80
2018-11-13T07:59:38.566Z,13.80
2018-11-13T08:02:05.924Z,13.70
2018-11-13T08:04:34.185Z,13.70
2018-11-13T08:07:01.604Z,13.70
2018-11-13T08:09:28.891Z,13.70
2018-11-13T08:11:56.165Z,13.70
2018-11-13T08:14:23.504Z,13.70
2018-11-13T08:16:50.785Z,13.70
2018-11-13T08:19:18.123Z,13.60
2018-11-13T08:21:45.970Z,13.70
2018-11-13T08:24:13.319Z,13.70
2018-11-13T08:26:40.613Z,13.60
2018-11-13T08:29:07.855Z,13.70
2018-11-13T08:31:35.185Z,13.70
2018-11-13T08:34:02.483Z,13.70
2018-11-13T08:36:29.783Z,13.60
2018-11-13T08:38:57.062Z,13.70
2018-11-13T08:41:25.209Z,13.70
2018-11-13T08:43:52.794Z,13.70
2018-11-13T08:46:20.304Z,13.70
2018-11-13T08:48:47.886Z,13.70
2018-11-13T08:51:15.172Z,13.70
2018-11-13T08:53:42.540Z,13.60
2018-11-13T08:56:09.877Z,13.70
2018-11-13T08:58:37.218Z,13.60
2018-11-13T09:01:04.739Z,13.60
2018-11-13T09:03:32.017Z,13.70
2018-11-13T09:05:59.237Z,13.70
2018-11-13T09:08:26.505Z,13.70
2018-11-13T09:10:53.866Z,13.70
2018-11-13T09:13:21.541Z,13.70
2018-11-13T09:15:48.843Z,13.70
2018-11-13T09:18:16.085Z,13.70
2018-11-13T09:20:43.330Z,13.70
2018-11-13T09:23:10.528Z,13.70
2018-11-13T09:25:37.785Z,13.70
2018-11-13T09:28:05.194Z,13.70
2018-11-13T09:30:32.773Z,13.70
2018-11-13T09:32:59.821Z,13.70
2018-11-13T09:35:27.135Z,13.60
2018-11-13T09:37:54.338Z,13.60
2018-11-13T09:40:21.573Z,13.70
2018-11-13T09:42:50.934Z,13.70
2018-11-13T09:45:18.465Z,13.80
2018-11-13T09:47:46.686Z,13.80
2018-11-13T09:50:15.438Z,13.90
2018-11-13T09:52:44.098Z,13.80
2018-11-13T09:55:12.822Z,13.80
2018-11-13T09:57:40.072Z,13.80
2018-11-13T10:00:11.817Z,13.80
2018-11-13T10:02:39.534Z,13.90
2018-11-13T10:05:07.125Z,13.90
2018-11-13T10:07:33.661Z,13.90
2018-11-13T10:10:00.945Z,13.90
2018-11-13T10:12:28.372Z,13.90
2018-11-13T10:14:55.653Z,13.90
2018-11-13T10:17:23.013Z,14.00
2018-11-13T10:19:50.244Z,14.10
2018-11-13T10:22:17.529Z,14.10
2018-11-13T10:24:44.730Z,14.10
2018-11-13T10:27:12.040Z,14.00
2018-11-13T10:29:39.183Z,14.00
2018-11-13T10:32:06.486Z,14.00
2018-11-13T10:34:33.782Z,14.00
2018-11-13T10:37:01.081Z,14.00
2018-11-13T10:39:28.376Z,14.00
2018-11-13T10:41:55.622Z,14.00
2018-11-13T10:44:22.886Z,14.00
2018-11-13T10:46:50.210Z,13.90
2018-11-13T10:49:17.551Z,13.90
2018-11-13T10:51:45.437Z,14.00
2018-11-13T10:56:46.851Z,14.00
2018-11-13T10:59:14.124Z,14.00
2018-11-13T11:01:47.200Z,14.00
2018-11-13T11:04:20.193Z,14.00
2018-11-13T11:06:47.464Z,14.10
2018-11-13T11:09:14.771Z,14.30
2018-11-13T11:11:42.080Z,14.20
2018-11-13T11:14:09.358Z,14.30
2018-11-13T11:16:36.619Z,14.30
2018-11-13T11:19:04.024Z,14.30
2018-11-13T11:21:31.209Z,14.30
2018-11-13T11:23:58.492Z,14.30
2018-11-13T11:26:25.829Z,14.40
2018-11-13T11:28:53.038Z,14.40
2018-11-13T11:31:20.304Z,14.40
2018-11-13T11:33:47.607Z,14.50
2018-11-13T11:36:14.917Z,14.50
2018-11-13T11:38:42.239Z,14.50
2018-11-13T11:41:09.461Z,14.50
2018-11-13T11:43:36.897Z,14.50
2018-11-13T11:46:04.522Z,14.50
2018-11-13T11:48:31.780Z,14.60
2018-11-13T11:50:59.113Z,14.60
2018-11-13T11:53:26.360Z,14.60
2018-11-13T11:55:53.590Z,14.60
2018-11-13T11:58:20.952Z,14.60
2018-11-13T12:00:48.386Z,14.60
2018-11-13T12:03:15.539Z,14.60
2018-11-13T12:05:42.761Z,14.60
2018-11-13T12:08:09.993Z,14.60
2018-11-13T12:10:37.283Z,14.60
2018-11-13T12:13:04.776Z,14.50
2018-11-13T12:15:31.992Z,14.50
2018-11-13T12:17:59.288Z,14.60
2018-11-13T12:20:26.540Z,14.60
2018-11-13T12:22:53.810Z,14.60
2018-11-13T12:25:21.101Z,14.70
2018-11-13T12:27:48.353Z,14.70
2018-11-13T12:30:17.916Z,14.70
2018-11-13T12:32:46.191Z,14.70
2018-11-13T12:35:14.525Z,14.70
2018-11-13T12:37:41.771Z,14.70
2018-11-13T12:40:12.595Z,14.70
2018-11-13T12:42:39.890Z,14.80
2018-11-13T12:45:08.009Z,14.70
2018-11-13T12:47:35.268Z,14.70
2018-11-13T12:50:02.730Z,14.70
2018-11-13T12:52:30.013Z,14.60
2018-11-13T12:54:57.272Z,14.70
2018-11-13T12:57:24.516Z,14.80
2018-11-13T12:59:51.786Z,14.80
2018-11-13T13:02:19.090Z,14.80
2018-11-13T13:04:46.336Z,14.80
2018-11-13T13:07:13.611Z,14.70
2018-11-13T13:09:40.909Z,14.70
2018-11-13T13:12:09.224Z,14.60
2018-11-13T13:14:36.666Z,14.60
2018-11-13T13:17:04.502Z,14.60
2018-11-13T13:19:31.733Z,14.60
2018-11-13T13:21:59.127Z,14.60
2018-11-13T13:24:26.467Z,14.60
2018-11-13T13:26:53.756Z,14.60
2018-11-13T13:29:21.131Z,14.50
2018-11-13T13:31:48.528Z,14.50
2018-11-13T13:34:15.605Z,14.60
2018-11-13T13:36:42.885Z,14.50
2018-11-13T13:39:10.332Z,14.60
2018-11-13T13:41:37.682Z,14.60
2018-11-13T13:44:05.465Z,14.60
2018-11-13T13:46:32.890Z,14.50
2018-11-13T13:49:00.018Z,14.50
2018-11-13T13:51:27.400Z,14.50
2018-11-13T13:53:54.842Z,14.50
2018-11-13T13:56:22.000Z,14.50
2018-11-13T13:58:49.285Z,14.50
2018-11-13T14:01:16.548Z,14.50
2018-11-13T14:03:44.010Z,14.60
2018-11-13T14:06:11.359Z,14.60
2018-11-13T14:08:38.620Z,14.70
2018-11-13T14:11:05.925Z,14.60
2018-11-13T14:13:33.200Z,14.60
2018-11-13T14:16:00.484Z,14.60
2018-11-13T14:18:27.843Z,14.60
2018-11-13T14:20:55.165Z,14.60
2018-11-13T14:23:22.414Z,14.50
2018-11-13T14:25:49.794Z,14.50
2018-11-13T14:28:17.150Z,14.40
2018-11-13T14:30:44.437Z,14.40
2018-11-13T14:33:12.370Z,14.40
2018-11-13T14:35:39.814Z,14.40
2018-11-13T14:38:07.009Z,14.40
2018-11-13T14:40:36.030Z,14.40
2018-11-13T14:43:03.714Z,14.40
2018-11-13T14:45:31.158Z,14.30
2018-11-13T14:47:58.650Z,14.30
2018-11-13T14:50:27.207Z,14.30
2018-11-13T14:52:54.858Z,14.30
2018-11-13T14:55:24.312Z,14.20
2018-11-13T14:57:52.056Z,14.20
2018-11-13T15:00:21.265Z,14.20
2018-11-13T15:02:49.104Z,14.10
2018-11-13T15:05:17.704Z,14.10
2018-11-13T15:07:46.261Z,14.10
2018-11-13T15:10:15.455Z,14.10
2018-11-13T15:12:42.817Z,14.10
2018-11-13T15:15:10.547Z,14.10
2018-11-13T15:17:38.150Z,14.10
2018-11-13T15:20:08.166Z,14.00
2018-11-13T15:22:35.461Z,14.00
2018-11-13T15:25:02.922Z,13.90
2018-11-13T15:27:30.194Z,13.90
2018-11-13T15:29:57.433Z,13.90
2018-11-13T15:32:24.753Z,13.90
2018-11-13T15:34:52.025Z,13.90
2018-11-13T15:37:19.243Z,13.90
2018-11-13T15:39:46.508Z,13.80
2018-11-13T15:42:13.801Z,13.80
2018-11-13T15:44:41.077Z,13.80
2018-11-13T15:47:08.569Z,13.80
2018-11-13T15:49:35.850Z,13.80
2018-11-13T15:52:03.419Z,13.70
2018-11-13T15:54:30.549Z,13.70
2018-11-13T15:56:57.864Z,13.90
2018-11-13T15:59:25.104Z,13.70
2018-11-13T16:01:52.332Z,13.70
2018-11-13T16:04:19.618Z,13.70
2018-11-13T16:06:46.986Z,13.70
2018-11-13T16:09:14.276Z,13.70
2018-11-13T16:11:41.540Z,13.70
2018-11-13T16:14:08.885Z,13.60
2018-11-13T16:16:36.196Z,13.50
2018-11-13T16:19:03.613Z,13.50
2018-11-13T16:21:30.932Z,13.40
2018-11-13T16:23:58.259Z,13.40
2018-11-13T16:26:25.509Z,13.40
2018-11-13T16:28:52.798Z,13.40
2018-11-13T16:31:20.085Z,13.40
2018-11-13T16:33:47.357Z,13.40
2018-11-13T16:36:14.673Z,13.30
2018-11-13T16:38:42.031Z,13.30
2018-11-13T16:41:09.267Z,13.20
2018-11-13T16:43:36.509Z,13.20
2018-11-13T16:46:03.824Z,13.20
2018-11-13T16:48:31.062Z,13.20
2018-11-13T16:50:58.367Z,13.20
2018-11-13T16:53:25.603Z,13.10
2018-11-13T16:55:55.923Z,13.10
2018-11-13T16:58:23.388Z,13.00
2018-11-13T17:00:50.659Z,13.00
2018-11-13T17:03:17.907Z,13.00
2018-11-13T17:05:45.273Z,13.00
2018-11-13T17:08:12.505Z,13.00
2018-11-13T17:10:42.262Z,12.90
2018-11-13T17:13:09.643Z,12.90
2018-11-13T17:15:36.988Z,12.90
2018-11-13T17:18:05.104Z,12.90
2018-11-13T17:20:32.383Z,12.80
2018-11-13T17:22:59.640Z,12.80
2018-11-13T17:25:28.505Z,12.80
2018-11-13T17:27:56.021Z,12.80
2018-11-13T17:30:25.247Z,12.80
2018-11-13T17:32:53.281Z,12.80
2018-11-13T17:35:21.813Z,12.80
2018-11-13T17:37:49.868Z,12.70
2018-11-13T17:40:19.786Z,12.80
2018-11-13T17:42:47.725Z,12.80
2018-11-13T17:45:17.885Z,12.70
2018-11-13T17:47:45.533Z,12.70
2018-11-13T17:50:15.123Z,12.80
2018-11-13T17:52:43.434Z,12.80
2018-11-13T17:55:11.573Z,12.70
2018-11-13T17:57:39.239Z,12.70
2018-11-13T18:00:25.054Z,12.70
2018-11-13T18:02:52.421Z,12.70
2018-11-13T18:05:21.005Z,12.70
2018-11-13T18:07:48.847Z,12.60
2018-11-13T18:10:16.739Z,12.60
2018-11-13T18:12:44.076Z,12.60
2018-11-13T18:15:14.013Z,12.50
2018-11-13T18:17:41.652Z,12.50
2018-11-13T18:20:12.217Z,12.50
2018-11-13T18:22:40.031Z,12.50
2018-11-13T18:25:07.673Z,12.50
2018-11-13T18:27:35.086Z,12.50
2018-11-13T18:30:02.477Z,12.40
2018-11-13T18:32:29.708Z,12.40
2018-11-13T18:34:56.978Z,12.40
2018-11-13T18:37:24.514Z,12.40
2018-11-13T18:39:51.836Z,12.40
2018-11-13T18:42:19.088Z,12.40
2018-11-13T18:44:46.413Z,12.40
2018-11-13T18:47:13.676Z,12.30
2018-11-13T18:49:40.968Z,12.30
2018-11-13T18:52:08.334Z,12.30
2018-11-13T18:54:35.605Z,12.40
2018-11-13T18:57:02.885Z,12.30
2018-11-13T18:59:30.259Z,12.30
2018-11-13T19:01:57.519Z,12.30
2018-11-13T19:04:24.718Z,12.30
2018-11-13T19:06:52.034Z,12.30
2018-11-13T19:09:19.380Z,12.30
2018-11-13T19:11:46.916Z,12.30
2018-11-13T19:14:14.034Z,12.30
2018-11-13T19:16:41.488Z,12.30
2018-11-13T19:19:08.743Z,12.30
2018-11-13T19:21:36.121Z,12.10
2018-11-13T19:24:03.460Z,12.10
2018-11-13T19:26:30.613Z,12.10
2018-11-13T19:28:57.877Z,12.10
2018-11-13T19:31:25.206Z,12.10
2018-11-13T19:33:52.531Z,12.00
2018-11-13T19:36:19.918Z,12.00
2018-11-13T19:38:47.144Z,12.00
2018-11-13T19:41:14.435Z,12.00
2018-11-13T19:43:41.741Z,12.10
2018-11-13T19:46:09.061Z,12.00
2018-11-13T19:48:36.497Z,12.00
2018-11-13T19:51:03.809Z,12.00
2018-11-13T19:53:31.151Z,11.90
2018-11-13T19:55:58.304Z,12.00
2018-11-13T19:58:25.596Z,12.00
2018-11-13T20:00:52.846Z,11.90
2018-11-13T20:03:20.124Z,11.90
2018-11-13T20:05:47.457Z,11.90
2018-11-13T20:08:15.590Z,11.90
2018-11-13T20:10:43.670Z,11.80
2018-11-13T20:13:13.662Z,11.90
2018-11-13T20:15:43.070Z,11.90
2018-11-13T20:18:12.882Z,11.90
2018-11-13T20:20:42.465Z,11.80
2018-11-13T20:23:12.108Z,11.90
2018-11-13T20:25:41.855Z,11.90
2018-11-13T20:28:11.624Z,11.90
2018-11-13T20:30:42.199Z,11.90
2018-11-13T20:33:12.178Z,11.80
2018-11-13T20:35:41.791Z,11.80
2018-11-13T20:38:11.528Z,11.80
2018-11-13T20:40:41.099Z,11.80
2018-11-13T20:43:12.183Z,11.70
2018-11-13T20:45:41.905Z,11.70
2018-11-13T20:48:11.419Z,11.70
2018-11-13T20:50:42.840Z,11.70
2018-11-13T20:53:11.155Z,11.70
2018-11-13T20:55:39.814Z,11.70
2018-11-13T20:58:08.040Z,11.70
2018-11-13T21:00:36.897Z,11.80
2018-11-13T21:03:05.778Z,11.70
2018-11-13T21:05:33.981Z,11.70
2018-11-13T21:08:02.150Z,11.70
2018-11-13T21:10:34.404Z,11.60
2018-11-13T21:13:02.477Z,11.60
2018-11-13T21:15:29.729Z,11.60
2018-11-13T21:17:57.300Z,11.50
2018-11-13T21:20:25.752Z,11.60
2018-11-13T21:22:53.799Z,11.70
2018-11-13T21:25:23.180Z,11.70
2018-11-13T21:27:53.144Z,11.60
2018-11-13T21:30:21.137Z,11.60
2018-11-13T21:32:49.038Z,11.50
2018-11-13T21:35:16.439Z,11.60
2018-11-13T21:37:45.023Z,11.60
2018-11-13T21:40:13.729Z,11.50
2018-11-13T21:42:41.236Z,11.60
2018-11-13T21:45:09.116Z,11.50
2018-11-13T21:47:36.407Z,11.60
2018-11-13T21:50:03.886Z,11.60
2018-11-13T21:52:31.101Z,11.50
2018-11-13T21:54:58.470Z,11.50
2018-11-13T21:57:25.688Z,11.50
2018-11-13T21:59:53.085Z,11.50
2018-11-13T22:02:20.280Z,11.50
2018-11-13T22:04:47.853Z,11.40
2018-11-13T22:07:15.021Z,11.40
2018-11-13T22:09:42.494Z,11.50
2018-11-13T22:12:09.759Z,11.40
2018-11-13T22:14:37.182Z,11.40
2018-11-13T22:17:04.591Z,11.40
2018-11-13T22:19:31.901Z,11.40
2018-11-13T22:21:59.030Z,11.30
2018-11-13T22:24:26.232Z,11.30
2018-11-13T22:26:53.596Z,11.30
2018-11-13T22:29:20.793Z,11.20
2018-11-13T22:31:48.296Z,11.20
2018-11-13T22:34:16.115Z,11.10
2018-11-13T22:36:43.020Z,11.20
2018-11-13T22:39:10.269Z,11.30
2018-11-13T22:41:37.537Z,11.20
2018-11-13T22:44:04.873Z,11.20
2018-11-13T22:46:32.173Z,11.20
2018-11-13T22:48:59.640Z,11.20
2018-11-13T22:51:26.878Z,11.10
2018-11-13T22:53:54.510Z,11.10
2018-11-13T22:56:21.414Z,11.20
2018-11-13T22:58:48.636Z,11.20
2018-11-13T23:01:15.974Z,11.20
2018-11-13T23:03:43.245Z,11.10
2018-11-13T23:06:10.511Z,11.10
2018-11-13T23:08:37.745Z,11.00
2018-11-13T23:11:11.208Z,11.00
2018-11-13T23:13:38.511Z,11.10
2018-11-13T23:16:05.840Z,11.10
2018-11-13T23:18:33.168Z,11.00
2018-11-13T23:21:00.470Z,11.10
2018-11-13T23:23:27.749Z,11.10
2018-11-13T23:25:55.044Z,11.10
2018-11-13T23:28:22.339Z,11.10
2018-11-13T23:30:49.621Z,11.10
2018-11-13T23:33:16.889Z,11.10
2018-11-13T23:35:44.164Z,11.00
2018-11-13T23:38:11.417Z,11.00
2018-11-13T23:40:38.580Z,11.00
2018-11-13T23:43:05.841Z,11.00
2018-11-13T23:45:33.085Z,11.00
2018-11-13T23:48:00.750Z,10.90
2018-11-13T23:50:27.620Z,11.00
2018-11-13T23:52:55.404Z,11.00
2018-11-13T23:55:22.629Z,11.00
2018-11-13T23:57:49.828Z,10.90
